sensor_id;sensor_type;location;lat;lon;timestamp;P1;durP1;ratioP1;P2;durP2;ratioP2
55035;SDS011;40936;53.008;6.556;2022-08-01T00:00:09;1999.90;;;999.90;;
55035;SDS011;40936;53.008;6.556;2022-08-01T00:02:38;1999.90;;;988.58;;
55035;SDS011;40936;53.008;6.556;2022-08-01T00:05:05;1999.90;;;999.90;;
55035;SDS011;40936;53.008;6.556;2022-08-01T00:07:32;1999.90;;;999.90;;
55035;SDS011;40936;53.008;6.556;2022-08-01T00:09:58;1999.90;;;999.90;;
55035;SDS011;40936;53.008;6.556;2022-08-01T00:12:24;1999.90;;;999.90;;
55035;SDS011;40936;53.008;6.556;2022-08-01T00:14:49;1999.90;;;999.90;;
55035;SDS011;40936;53.008;6.556;2022-08-01T00:17:15;1999.90;;;999.90;;
55035;SDS011;40936;53.008;6.556;2022-08-01T00:19:41;1999.90;;;999.90;;
55035;SDS011;40936;53.008;6.556;2022-08-01T00:22:06;1999.90;;;999.90;;
55035;SDS011;40936;53.008;6.556;2022-08-01T00:24:32;1999.90;;;972.22;;
55035;SDS011;40936;53.008;6.556;2022-08-01T00:26:58;1999.90;;;999.90;;
55035;SDS011;40936;53.008;6.556;2022-08-01T00:29:24;1999.90;;;999.90;;
55035;SDS011;40936;53.008;6.556;2022-08-01T00:31:50;1999.90;;;999.90;;
55035;SDS011;40936;53.008;6.556;2022-08-01T00:34:16;1999.90;;;998.53;;
55035;SDS011;40936;53.008;6.556;2022-08-01T00:36:41;1999.90;;;999.90;;
55035;SDS011;40936;53.008;6.556;2022-08-01T00:39:07;1999.90;;;999.90;;
55035;SDS011;40936;53.008;6.556;2022-08-01T00:41:33;1999.90;;;999.90;;
55035;SDS011;40936;53.008;6.556;2022-08-01T00:44:01;1999.90;;;999.90;;
55035;SDS011;40936;53.008;6.556;2022-08-01T00:46:28;1999.90;;;999.90;;
55035;SDS011;40936;53.008;6.556;2022-08-01T00:48:54;1999.90;;;999.90;;
55035;SDS011;40936;53.008;6.556;2022-08-01T00:51:20;1999.90;;;999.90;;
55035;SDS011;40936;53.008;6.556;2022-08-01T00:53:47;1999.90;;;999.90;;
55035;SDS011;40936;53.008;6.556;2022-08-01T00:56:13;1999.90;;;999.90;;
55035;SDS011;40936;53.008;6.556;2022-08-01T00:58:39;1999.90;;;994.78;;
55035;SDS011;40936;53.008;6.556;2022-08-01T01:01:05;1999.90;;;999.90;;
55035;SDS011;40936;53.008;6.556;2022-08-01T01:03:31;1999.90;;;999.90;;
55035;SDS011;40936;53.008;6.556;2022-08-01T01:06:05;1999.90;;;970.05;;
55035;SDS011;40936;53.008;6.556;2022-08-01T01:11:57;1999.90;;;999.90;;
55035;SDS011;40936;53.008;6.556;2022-08-01T01:17:32;1999.90;;;999.90;;
55035;SDS011;40936;53.008;6.556;2022-08-01T01:20:02;1999.90;;;999.90;;
55035;SDS011;40936;53.008;6.556;2022-08-01T01:25:09;1999.90;;;999.90;;
55035;SDS011;40936;53.008;6.556;2022-08-01T01:32:53;1999.90;;;999.90;;
55035;SDS011;40936;53.008;6.556;2022-08-01T01:35:25;1999.90;;;999.90;;
55035;SDS011;40936;53.008;6.556;2022-08-01T01:37:58;1999.90;;;999.90;;
55035;SDS011;40936;53.008;6.556;2022-08-01T01:40:45;1999.90;;;999.90;;
55035;SDS011;40936;53.008;6.556;2022-08-01T01:43:12;1999.90;;;999.90;;
55035;SDS011;40936;53.008;6.556;2022-08-01T01:45:40;1999.90;;;999.90;;
55035;SDS011;40936;53.008;6.556;2022-08-01T01:48:07;1999.90;;;999.90;;
55035;SDS011;40936;53.008;6.556;2022-08-01T01:50:35;1999.90;;;999.90;;
55035;SDS011;40936;53.008;6.556;2022-08-01T01:53:02;1999.90;;;999.90;;
55035;SDS011;40936;53.008;6.556;2022-08-01T01:55:30;1999.90;;;999.90;;
55035;SDS011;40936;53.008;6.556;2022-08-01T01:57:57;1999.90;;;999.90;;
55035;SDS011;40936;53.008;6.556;2022-08-01T02:00:25;1999.90;;;999.90;;
55035;SDS011;40936;53.008;6.556;2022-08-01T02:02:51;1999.90;;;999.90;;
55035;SDS011;40936;53.008;6.556;2022-08-01T02:05:18;1999.90;;;999.90;;
55035;SDS011;40936;53.008;6.556;2022-08-01T02:07:46;1999.90;;;999.90;;
55035;SDS011;40936;53.008;6.556;2022-08-01T02:10:14;1999.90;;;999.90;;
55035;SDS011;40936;53.008;6.556;2022-08-01T02:12:43;1999.90;;;999.90;;
55035;SDS011;40936;53.008;6.556;2022-08-01T02:15:11;1999.90;;;999.90;;
55035;SDS011;40936;53.008;6.556;2022-08-01T02:17:43;1999.90;;;999.90;;
55035;SDS011;40936;53.008;6.556;2022-08-01T02:20:12;1999.90;;;999.90;;
55035;SDS011;40936;53.008;6.556;2022-08-01T02:22:42;1999.90;;;999.90;;
55035;SDS011;40936;53.008;6.556;2022-08-01T02:27:50;1989.93;;;999.90;;
55035;SDS011;40936;53.008;6.556;2022-08-01T02:30:17;1932.75;;;999.90;;
55035;SDS011;40936;53.008;6.556;2022-08-01T02:32:44;1960.80;;;999.90;;
55035;SDS011;40936;53.008;6.556;2022-08-01T02:35:26;1996.40;;;999.90;;
55035;SDS011;40936;53.008;6.556;2022-08-01T02:37:53;1985.75;;;999.90;;
55035;SDS011;40936;53.008;6.556;2022-08-01T02:40:22;1995.78;;;999.90;;
55035;SDS011;40936;53.008;6.556;2022-08-01T02:42:51;1997.40;;;999.90;;
55035;SDS011;40936;53.008;6.556;2022-08-01T02:45:20;1982.65;;;999.90;;
55035;SDS011;40936;53.008;6.556;2022-08-01T02:47:50;1999.25;;;999.90;;
55035;SDS011;40936;53.008;6.556;2022-08-01T02:50:18;1932.07;;;999.90;;
55035;SDS011;40936;53.008;6.556;2022-08-01T02:52:46;1901.87;;;999.90;;
55035;SDS011;40936;53.008;6.556;2022-08-01T02:55:15;1956.43;;;999.90;;
55035;SDS011;40936;53.008;6.556;2022-08-01T02:57:43;1941.25;;;999.90;;
55035;SDS011;40936;53.008;6.556;2022-08-01T03:00:10;1928.25;;;999.90;;
55035;SDS011;40936;53.008;6.556;2022-08-01T03:02:36;1974.20;;;999.90;;
55035;SDS011;40936;53.008;6.556;2022-08-01T03:05:03;1899.53;;;999.90;;
55035;SDS011;40936;53.008;6.556;2022-08-01T03:07:30;1999.90;;;999.90;;
55035;SDS011;40936;53.008;6.556;2022-08-01T03:09:56;1996.45;;;999.90;;
55035;SDS011;40936;53.008;6.556;2022-08-01T03:12:24;1941.45;;;999.90;;
55035;SDS011;40936;53.008;6.556;2022-08-01T03:14:53;1909.45;;;999.90;;
55035;SDS011;40936;53.008;6.556;2022-08-01T03:17:22;1996.28;;;999.90;;
55035;SDS011;40936;53.008;6.556;2022-08-01T03:19:51;1991.35;;;999.90;;
55035;SDS011;40936;53.008;6.556;2022-08-01T03:22:17;1929.82;;;999.90;;
55035;SDS011;40936;53.008;6.556;2022-08-01T03:24:45;1928.72;;;999.90;;
55035;SDS011;40936;53.008;6.556;2022-08-01T03:27:14;1919.93;;;999.90;;
55035;SDS011;40936;53.008;6.556;2022-08-01T03:29:43;1832.50;;;999.90;;
55035;SDS011;40936;53.008;6.556;2022-08-01T03:32:11;1978.03;;;999.90;;
55035;SDS011;40936;53.008;6.556;2022-08-01T03:34:38;1796.50;;;999.90;;
55035;SDS011;40936;53.008;6.556;2022-08-01T03:39:34;1676.75;;;999.90;;
55035;SDS011;40936;53.008;6.556;2022-08-01T03:42:07;1758.30;;;999.90;;
55035;SDS011;40936;53.008;6.556;2022-08-01T03:44:39;1798.32;;;999.90;;
55035;SDS011;40936;53.008;6.556;2022-08-01T03:47:07;1931.28;;;999.90;;
55035;SDS011;40936;53.008;6.556;2022-08-01T03:49:41;1779.13;;;999.90;;
55035;SDS011;40936;53.008;6.556;2022-08-01T03:52:09;1748.95;;;999.90;;
55035;SDS011;40936;53.008;6.556;2022-08-01T03:54:37;1770.60;;;999.90;;
55035;SDS011;40936;53.008;6.556;2022-08-01T03:57:05;1751.38;;;999.90;;
55035;SDS011;40936;53.008;6.556;2022-08-01T03:59:34;1769.00;;;999.90;;
55035;SDS011;40936;53.008;6.556;2022-08-01T04:02:02;1844.43;;;999.90;;
55035;SDS011;40936;53.008;6.556;2022-08-01T04:04:28;1891.32;;;999.90;;
55035;SDS011;40936;53.008;6.556;2022-08-01T04:06:54;1807.25;;;999.90;;
55035;SDS011;40936;53.008;6.556;2022-08-01T04:09:20;1847.10;;;999.90;;
55035;SDS011;40936;53.008;6.556;2022-08-01T04:11:47;1856.05;;;999.90;;
55035;SDS011;40936;53.008;6.556;2022-08-01T04:14:13;1753.60;;;999.90;;
55035;SDS011;40936;53.008;6.556;2022-08-01T04:16:39;1916.00;;;999.90;;
55035;SDS011;40936;53.008;6.556;2022-08-01T04:19:05;1800.78;;;999.90;;
55035;SDS011;40936;53.008;6.556;2022-08-01T04:21:32;1835.78;;;999.90;;
55035;SDS011;40936;53.008;6.556;2022-08-01T04:24:06;1788.15;;;999.90;;
55035;SDS011;40936;53.008;6.556;2022-08-01T04:26:38;1945.80;;;999.90;;
55035;SDS011;40936;53.008;6.556;2022-08-01T04:31:33;1770.90;;;999.90;;
55035;SDS011;40936;53.008;6.556;2022-08-01T04:36:27;1747.03;;;999.90;;
55035;SDS011;40936;53.008;6.556;2022-08-01T04:38:58;1770.20;;;999.90;;
55035;SDS011;40936;53.008;6.556;2022-08-01T04:41:25;1999.70;;;999.90;;
55035;SDS011;40936;53.008;6.556;2022-08-01T04:43:51;1822.25;;;999.90;;
55035;SDS011;40936;53.008;6.556;2022-08-01T04:46:19;1853.20;;;999.90;;
55035;SDS011;40936;53.008;6.556;2022-08-01T04:48:45;1876.72;;;999.90;;
55035;SDS011;40936;53.008;6.556;2022-08-01T04:51:14;1950.22;;;999.90;;
55035;SDS011;40936;53.008;6.556;2022-08-01T04:53:41;1943.43;;;999.90;;
55035;SDS011;40936;53.008;6.556;2022-08-01T04:56:08;1934.38;;;999.90;;
55035;SDS011;40936;53.008;6.556;2022-08-01T04:58:34;1999.90;;;999.90;;
55035;SDS011;40936;53.008;6.556;2022-08-01T05:01:00;1961.00;;;999.90;;
55035;SDS011;40936;53.008;6.556;2022-08-01T05:03:25;1999.90;;;999.90;;
55035;SDS011;40936;53.008;6.556;2022-08-01T05:05:51;1915.00;;;999.90;;
55035;SDS011;40936;53.008;6.556;2022-08-01T05:08:16;1999.90;;;999.90;;
55035;SDS011;40936;53.008;6.556;2022-08-01T05:10:42;1957.07;;;999.90;;
55035;SDS011;40936;53.008;6.556;2022-08-01T05:13:08;1856.45;;;999.90;;
55035;SDS011;40936;53.008;6.556;2022-08-01T05:15:34;1918.47;;;999.90;;
55035;SDS011;40936;53.008;6.556;2022-08-01T05:18:04;1999.90;;;999.90;;
55035;SDS011;40936;53.008;6.556;2022-08-01T05:20:30;1999.90;;;999.90;;
55035;SDS011;40936;53.008;6.556;2022-08-01T05:22:56;1999.90;;;999.90;;
55035;SDS011;40936;53.008;6.556;2022-08-01T05:25:22;1999.90;;;999.90;;
55035;SDS011;40936;53.008;6.556;2022-08-01T05:27:48;1999.90;;;999.90;;
55035;SDS011;40936;53.008;6.556;2022-08-01T05:30:14;1999.90;;;999.90;;
55035;SDS011;40936;53.008;6.556;2022-08-01T05:32:40;1999.90;;;999.90;;
55035;SDS011;40936;53.008;6.556;2022-08-01T05:35:07;1999.90;;;999.90;;
55035;SDS011;40936;53.008;6.556;2022-08-01T05:37:33;1999.90;;;999.90;;
55035;SDS011;40936;53.008;6.556;2022-08-01T05:39:59;1999.90;;;999.90;;
55035;SDS011;40936;53.008;6.556;2022-08-01T05:42:25;1999.90;;;999.90;;
55035;SDS011;40936;53.008;6.556;2022-08-01T05:44:51;1999.90;;;999.90;;
55035;SDS011;40936;53.008;6.556;2022-08-01T05:47:17;1999.90;;;999.90;;
55035;SDS011;40936;53.008;6.556;2022-08-01T05:49:43;1862.15;;;999.90;;
55035;SDS011;40936;53.008;6.556;2022-08-01T05:52:10;1894.82;;;999.90;;
55035;SDS011;40936;53.008;6.556;2022-08-01T05:54:36;1822.65;;;999.90;;
55035;SDS011;40936;53.008;6.556;2022-08-01T05:57:01;1999.90;;;999.90;;
55035;SDS011;40936;53.008;6.556;2022-08-01T05:59:28;1939.63;;;999.90;;
55035;SDS011;40936;53.008;6.556;2022-08-01T06:01:54;1881.40;;;999.90;;
55035;SDS011;40936;53.008;6.556;2022-08-01T06:04:20;1983.47;;;999.90;;
55035;SDS011;40936;53.008;6.556;2022-08-01T06:06:46;1999.90;;;999.90;;
55035;SDS011;40936;53.008;6.556;2022-08-01T06:09:12;1957.30;;;999.90;;
55035;SDS011;40936;53.008;6.556;2022-08-01T06:11:37;1998.75;;;999.90;;
55035;SDS011;40936;53.008;6.556;2022-08-01T06:14:03;1993.93;;;999.90;;
55035;SDS011;40936;53.008;6.556;2022-08-01T06:16:29;1992.03;;;999.90;;
55035;SDS011;40936;53.008;6.556;2022-08-01T06:18:54;1999.90;;;999.90;;
55035;SDS011;40936;53.008;6.556;2022-08-01T06:21:20;1783.28;;;999.90;;
55035;SDS011;40936;53.008;6.556;2022-08-01T06:23:46;1822.97;;;999.90;;
55035;SDS011;40936;53.008;6.556;2022-08-01T06:26:11;1935.45;;;999.90;;
55035;SDS011;40936;53.008;6.556;2022-08-01T06:28:38;1936.70;;;999.90;;
55035;SDS011;40936;53.008;6.556;2022-08-01T06:31:04;1640.70;;;999.90;;
55035;SDS011;40936;53.008;6.556;2022-08-01T06:33:30;1695.90;;;999.90;;
55035;SDS011;40936;53.008;6.556;2022-08-01T06:35:56;1568.43;;;999.90;;
55035;SDS011;40936;53.008;6.556;2022-08-01T06:38:22;1648.82;;;999.90;;
55035;SDS011;40936;53.008;6.556;2022-08-01T06:40:47;1479.85;;;999.90;;
55035;SDS011;40936;53.008;6.556;2022-08-01T06:43:13;1445.65;;;999.90;;
55035;SDS011;40936;53.008;6.556;2022-08-01T06:45:40;1267.97;;;999.90;;
55035;SDS011;40936;53.008;6.556;2022-08-01T06:48:06;1279.75;;;999.90;;
55035;SDS011;40936;53.008;6.556;2022-08-01T06:50:32;1127.88;;;992.60;;
55035;SDS011;40936;53.008;6.556;2022-08-01T06:53:00;1263.57;;;999.90;;
55035;SDS011;40936;53.008;6.556;2022-08-01T06:55:26;1344.72;;;999.90;;
55035;SDS011;40936;53.008;6.556;2022-08-01T06:57:52;1249.22;;;999.90;;
55035;SDS011;40936;53.008;6.556;2022-08-01T07:00:19;1459.38;;;999.90;;
55035;SDS011;40936;53.008;6.556;2022-08-01T07:02:51;1133.25;;;996.53;;
55035;SDS011;40936;53.008;6.556;2022-08-01T07:05:17;1300.60;;;999.90;;
55035;SDS011;40936;53.008;6.556;2022-08-01T07:07:43;1103.25;;;983.97;;
55035;SDS011;40936;53.008;6.556;2022-08-01T07:10:09;1436.82;;;999.90;;
55035;SDS011;40936;53.008;6.556;2022-08-01T07:12:35;1403.53;;;999.90;;
55035;SDS011;40936;53.008;6.556;2022-08-01T07:15:06;1453.45;;;999.90;;
55035;SDS011;40936;53.008;6.556;2022-08-01T07:17:35;1296.97;;;999.90;;
55035;SDS011;40936;53.008;6.556;2022-08-01T07:20:02;1505.88;;;999.90;;
55035;SDS011;40936;53.008;6.556;2022-08-01T07:22:29;1477.35;;;999.90;;
55035;SDS011;40936;53.008;6.556;2022-08-01T07:24:54;1368.50;;;999.90;;
55035;SDS011;40936;53.008;6.556;2022-08-01T07:27:20;1738.60;;;999.90;;
55035;SDS011;40936;53.008;6.556;2022-08-01T07:29:46;1504.53;;;999.90;;
55035;SDS011;40936;53.008;6.556;2022-08-01T07:32:11;1346.07;;;999.90;;
55035;SDS011;40936;53.008;6.556;2022-08-01T07:34:37;1619.93;;;999.90;;
55035;SDS011;40936;53.008;6.556;2022-08-01T07:37:03;1312.50;;;999.90;;
55035;SDS011;40936;53.008;6.556;2022-08-01T07:39:28;1587.60;;;999.90;;
55035;SDS011;40936;53.008;6.556;2022-08-01T07:41:54;1339.57;;;999.90;;
55035;SDS011;40936;53.008;6.556;2022-08-01T07:44:20;1800.65;;;999.90;;
55035;SDS011;40936;53.008;6.556;2022-08-01T07:46:45;1194.45;;;999.90;;
55035;SDS011;40936;53.008;6.556;2022-08-01T07:49:11;1255.38;;;999.90;;
55035;SDS011;40936;53.008;6.556;2022-08-01T07:51:37;1076.43;;;959.90;;
55035;SDS011;40936;53.008;6.556;2022-08-01T07:54:03;1019.55;;;928.22;;
55035;SDS011;40936;53.008;6.556;2022-08-01T07:56:28;1047.53;;;947.80;;
55035;SDS011;40936;53.008;6.556;2022-08-01T07:58:54;1505.43;;;999.90;;
55035;SDS011;40936;53.008;6.556;2022-08-01T08:01:20;1411.93;;;999.90;;
55035;SDS011;40936;53.008;6.556;2022-08-01T08:03:46;1864.80;;;999.90;;
55035;SDS011;40936;53.008;6.556;2022-08-01T08:06:11;1591.97;;;999.90;;
55035;SDS011;40936;53.008;6.556;2022-08-01T08:08:37;1999.90;;;999.90;;
55035;SDS011;40936;53.008;6.556;2022-08-01T08:11:03;1999.90;;;999.90;;
55035;SDS011;40936;53.008;6.556;2022-08-01T08:13:28;1999.90;;;999.90;;
55035;SDS011;40936;53.008;6.556;2022-08-01T08:15:54;1999.90;;;999.90;;
55035;SDS011;40936;53.008;6.556;2022-08-01T08:18:20;1999.90;;;999.90;;
55035;SDS011;40936;53.008;6.556;2022-08-01T08:20:46;1793.80;;;999.90;;
55035;SDS011;40936;53.008;6.556;2022-08-01T08:23:12;1708.57;;;999.90;;
55035;SDS011;40936;53.008;6.556;2022-08-01T08:25:56;996.35;;;897.97;;
55035;SDS011;40936;53.008;6.556;2022-08-01T08:28:21;828.47;;;766.85;;
55035;SDS011;40936;53.008;6.556;2022-08-01T08:30:47;760.22;;;704.85;;
55035;SDS011;40936;53.008;6.556;2022-08-01T08:33:13;801.53;;;742.28;;
55035;SDS011;40936;53.008;6.556;2022-08-01T08:35:39;889.10;;;814.05;;
55035;SDS011;40936;53.008;6.556;2022-08-01T08:38:06;871.20;;;803.80;;
55035;SDS011;40936;53.008;6.556;2022-08-01T08:40:32;869.13;;;799.00;;
55035;SDS011;40936;53.008;6.556;2022-08-01T08:43:00;883.40;;;813.03;;
55035;SDS011;40936;53.008;6.556;2022-08-01T08:45:27;971.33;;;888.43;;
55035;SDS011;40936;53.008;6.556;2022-08-01T08:47:53;1051.07;;;956.28;;
55035;SDS011;40936;53.008;6.556;2022-08-01T08:50:20;999.22;;;911.03;;
55035;SDS011;40936;53.008;6.556;2022-08-01T08:52:48;926.20;;;847.45;;
55035;SDS011;40936;53.008;6.556;2022-08-01T08:55:16;916.90;;;839.78;;
55035;SDS011;40936;53.008;6.556;2022-08-01T08:57:43;1999.90;;;999.90;;
55035;SDS011;40936;53.008;6.556;2022-08-01T09:00:10;1999.90;;;999.90;;
55035;SDS011;40936;53.008;6.556;2022-08-01T09:02:40;1999.90;;;999.90;;
55035;SDS011;40936;53.008;6.556;2022-08-01T09:05:07;1999.90;;;999.90;;
55035;SDS011;40936;53.008;6.556;2022-08-01T09:07:33;1999.90;;;999.90;;
55035;SDS011;40936;53.008;6.556;2022-08-01T09:09:59;1999.90;;;999.90;;
55035;SDS011;40936;53.008;6.556;2022-08-01T09:12:25;1999.90;;;999.90;;
55035;SDS011;40936;53.008;6.556;2022-08-01T09:14:50;1999.90;;;999.90;;
55035;SDS011;40936;53.008;6.556;2022-08-01T09:17:18;1999.90;;;999.90;;
55035;SDS011;40936;53.008;6.556;2022-08-01T09:19:52;1999.90;;;999.90;;
55035;SDS011;40936;53.008;6.556;2022-08-01T09:22:21;1999.90;;;999.90;;
55035;SDS011;40936;53.008;6.556;2022-08-01T09:24:58;1999.90;;;999.90;;
55035;SDS011;40936;53.008;6.556;2022-08-01T09:27:26;1999.90;;;999.90;;
55035;SDS011;40936;53.008;6.556;2022-08-01T09:29:52;1999.90;;;999.90;;
55035;SDS011;40936;53.008;6.556;2022-08-01T09:32:19;1999.90;;;999.90;;
55035;SDS011;40936;53.008;6.556;2022-08-01T09:34:45;1999.90;;;999.90;;
55035;SDS011;40936;53.008;6.556;2022-08-01T09:37:12;1999.90;;;999.90;;
55035;SDS011;40936;53.008;6.556;2022-08-01T09:39:42;1999.90;;;999.90;;
55035;SDS011;40936;53.008;6.556;2022-08-01T09:42:23;1999.90;;;999.90;;
55035;SDS011;40936;53.008;6.556;2022-08-01T09:44:50;1999.90;;;999.90;;
55035;SDS011;40936;53.008;6.556;2022-08-01T09:47:16;1999.90;;;999.90;;
55035;SDS011;40936;53.008;6.556;2022-08-01T09:49:43;1999.90;;;999.90;;
55035;SDS011;40936;53.008;6.556;2022-08-01T09:52:48;1999.90;;;999.90;;
55035;SDS011;40936;53.008;6.556;2022-08-01T09:55:03;1728.60;;;974.78;;
55035;SDS011;40936;53.008;6.556;2022-08-01T09:57:31;1757.25;;;876.00;;
55035;SDS011;40936;53.008;6.556;2022-08-01T09:59:57;1827.43;;;935.10;;
55035;SDS011;40936;53.008;6.556;2022-08-01T10:02:31;1999.90;;;999.90;;
55035;SDS011;40936;53.008;6.556;2022-08-01T10:05:03;1999.90;;;999.90;;
55035;SDS011;40936;53.008;6.556;2022-08-01T10:07:30;1999.90;;;999.90;;
55035;SDS011;40936;53.008;6.556;2022-08-01T10:10:08;1687.70;;;835.90;;
55035;SDS011;40936;53.008;6.556;2022-08-01T10:12:35;1999.90;;;999.90;;
55035;SDS011;40936;53.008;6.556;2022-08-01T10:15:02;1999.90;;;999.90;;
55035;SDS011;40936;53.008;6.556;2022-08-01T10:17:29;1999.90;;;999.90;;
55035;SDS011;40936;53.008;6.556;2022-08-01T10:19:55;1999.90;;;999.90;;
55035;SDS011;40936;53.008;6.556;2022-08-01T10:22:23;1999.90;;;999.90;;
55035;SDS011;40936;53.008;6.556;2022-08-01T10:24:50;1999.90;;;999.90;;
55035;SDS011;40936;53.008;6.556;2022-08-01T10:27:20;1999.90;;;999.90;;
55035;SDS011;40936;53.008;6.556;2022-08-01T10:32:17;1999.90;;;999.90;;
55035;SDS011;40936;53.008;6.556;2022-08-01T10:34:42;1999.90;;;999.90;;
55035;SDS011;40936;53.008;6.556;2022-08-01T10:37:09;1999.90;;;999.90;;
55035;SDS011;40936;53.008;6.556;2022-08-01T10:39:37;1999.90;;;999.90;;
55035;SDS011;40936;53.008;6.556;2022-08-01T10:44:31;1999.90;;;999.90;;
55035;SDS011;40936;53.008;6.556;2022-08-01T10:47:06;1999.90;;;999.90;;
55035;SDS011;40936;53.008;6.556;2022-08-01T10:49:36;1999.90;;;999.90;;
55035;SDS011;40936;53.008;6.556;2022-08-01T10:52:13;1999.90;;;999.90;;
55035;SDS011;40936;53.008;6.556;2022-08-01T10:54:39;1999.90;;;999.90;;
55035;SDS011;40936;53.008;6.556;2022-08-01T10:57:05;1999.90;;;999.90;;
55035;SDS011;40936;53.008;6.556;2022-08-01T10:59:32;1999.90;;;999.90;;
55035;SDS011;40936;53.008;6.556;2022-08-01T11:02:01;1999.90;;;999.90;;
55035;SDS011;40936;53.008;6.556;2022-08-01T11:07:20;1771.97;;;976.00;;
55035;SDS011;40936;53.008;6.556;2022-08-01T11:09:48;1999.90;;;999.90;;
55035;SDS011;40936;53.008;6.556;2022-08-01T11:12:38;1999.90;;;999.90;;
55035;SDS011;40936;53.008;6.556;2022-08-01T11:20:14;1999.90;;;999.90;;
55035;SDS011;40936;53.008;6.556;2022-08-01T11:23:23;1999.90;;;999.90;;
55035;SDS011;40936;53.008;6.556;2022-08-01T11:30:49;1999.90;;;999.90;;
55035;SDS011;40936;53.008;6.556;2022-08-01T11:33:17;1618.07;;;816.53;;
55035;SDS011;40936;53.008;6.556;2022-08-01T11:36:16;1578.00;;;796.85;;
55035;SDS011;40936;53.008;6.556;2022-08-01T11:38:36;1999.90;;;999.90;;
55035;SDS011;40936;53.008;6.556;2022-08-01T11:54:56;1999.90;;;999.90;;
55035;SDS011;40936;53.008;6.556;2022-08-01T11:57:30;1999.90;;;999.90;;
55035;SDS011;40936;53.008;6.556;2022-08-01T12:00:00;1999.90;;;999.90;;
55035;SDS011;40936;53.008;6.556;2022-08-01T12:02:36;1999.90;;;999.90;;
55035;SDS011;40936;53.008;6.556;2022-08-01T12:05:06;1999.90;;;999.90;;
55035;SDS011;40936;53.008;6.556;2022-08-01T12:07:39;1999.90;;;999.90;;
55035;SDS011;40936;53.008;6.556;2022-08-01T12:15:03;1999.90;;;999.90;;
55035;SDS011;40936;53.008;6.556;2022-08-01T12:17:32;1999.90;;;999.90;;
55035;SDS011;40936;53.008;6.556;2022-08-01T12:19:58;1999.90;;;999.90;;
55035;SDS011;40936;53.008;6.556;2022-08-01T12:22:24;1999.90;;;999.90;;
55035;SDS011;40936;53.008;6.556;2022-08-01T12:24:50;1999.90;;;999.90;;
55035;SDS011;40936;53.008;6.556;2022-08-01T12:27:24;1272.20;;;663.92;;
55035;SDS011;40936;53.008;6.556;2022-08-01T12:29:55;1999.90;;;999.90;;
55035;SDS011;40936;53.008;6.556;2022-08-01T12:32:22;1337.53;;;769.85;;
55035;SDS011;40936;53.008;6.556;2022-08-01T12:34:50;1999.90;;;999.90;;
55035;SDS011;40936;53.008;6.556;2022-08-01T12:37:17;1282.82;;;784.53;;
55035;SDS011;40936;53.008;6.556;2022-08-01T12:39:43;1661.32;;;917.17;;
55035;SDS011;40936;53.008;6.556;2022-08-01T12:42:09;1543.40;;;998.50;;
55035;SDS011;40936;53.008;6.556;2022-08-01T12:44:36;1999.90;;;999.90;;
55035;SDS011;40936;53.008;6.556;2022-08-01T12:47:06;1715.78;;;889.03;;
55035;SDS011;40936;53.008;6.556;2022-08-01T12:49:33;1999.90;;;999.90;;
55035;SDS011;40936;53.008;6.556;2022-08-01T12:52:01;1562.90;;;999.90;;
55035;SDS011;40936;53.008;6.556;2022-08-01T12:54:27;1439.65;;;999.90;;
55035;SDS011;40936;53.008;6.556;2022-08-01T12:56:53;749.97;;;452.45;;
55035;SDS011;40936;53.008;6.556;2022-08-01T12:59:23;1999.90;;;999.90;;
55035;SDS011;40936;53.008;6.556;2022-08-01T13:01:54;1999.90;;;999.90;;
55035;SDS011;40936;53.008;6.556;2022-08-01T13:04:21;1999.90;;;999.90;;
55035;SDS011;40936;53.008;6.556;2022-08-01T13:06:47;1999.90;;;999.90;;
55035;SDS011;40936;53.008;6.556;2022-08-01T13:09:18;1999.90;;;999.90;;
55035;SDS011;40936;53.008;6.556;2022-08-01T13:11:44;1445.53;;;750.88;;
55035;SDS011;40936;53.008;6.556;2022-08-01T13:14:25;1531.03;;;886.03;;
55035;SDS011;40936;53.008;6.556;2022-08-01T13:16:54;1999.90;;;999.90;;
55035;SDS011;40936;53.008;6.556;2022-08-01T13:19:20;1294.63;;;881.33;;
55035;SDS011;40936;53.008;6.556;2022-08-01T13:21:56;1711.22;;;999.90;;
55035;SDS011;40936;53.008;6.556;2022-08-01T13:24:26;1999.90;;;999.90;;
55035;SDS011;40936;53.008;6.556;2022-08-01T13:26:54;1999.90;;;999.90;;
55035;SDS011;40936;53.008;6.556;2022-08-01T13:29:43;1999.90;;;999.90;;
55035;SDS011;40936;53.008;6.556;2022-08-01T13:34:38;1232.25;;;810.67;;
55035;SDS011;40936;53.008;6.556;2022-08-01T13:37:04;1999.90;;;999.90;;
55035;SDS011;40936;53.008;6.556;2022-08-01T13:39:30;1999.90;;;999.90;;
55035;SDS011;40936;53.008;6.556;2022-08-01T13:42:13;1999.90;;;999.90;;
55035;SDS011;40936;53.008;6.556;2022-08-01T13:44:43;1999.90;;;999.90;;
55035;SDS011;40936;53.008;6.556;2022-08-01T13:47:12;1999.90;;;999.90;;
55035;SDS011;40936;53.008;6.556;2022-08-01T13:49:38;1999.90;;;999.90;;
55035;SDS011;40936;53.008;6.556;2022-08-01T13:52:04;1999.90;;;999.90;;
55035;SDS011;40936;53.008;6.556;2022-08-01T13:54:33;1999.90;;;999.90;;
55035;SDS011;40936;53.008;6.556;2022-08-01T13:56:59;1999.90;;;999.90;;
55035;SDS011;40936;53.008;6.556;2022-08-01T13:59:25;1999.90;;;999.90;;
55035;SDS011;40936;53.008;6.556;2022-08-01T14:01:51;1999.90;;;999.90;;
55035;SDS011;40936;53.008;6.556;2022-08-01T14:04:16;1999.90;;;999.90;;
55035;SDS011;40936;53.008;6.556;2022-08-01T14:06:42;1999.90;;;999.90;;
55035;SDS011;40936;53.008;6.556;2022-08-01T14:09:08;1999.90;;;999.90;;
55035;SDS011;40936;53.008;6.556;2022-08-01T14:11:34;1999.90;;;999.90;;
55035;SDS011;40936;53.008;6.556;2022-08-01T14:13:59;1999.90;;;999.90;;
55035;SDS011;40936;53.008;6.556;2022-08-01T14:16:25;1999.90;;;999.90;;
55035;SDS011;40936;53.008;6.556;2022-08-01T14:18:51;1999.90;;;999.90;;
55035;SDS011;40936;53.008;6.556;2022-08-01T14:21:17;1999.90;;;999.90;;
55035;SDS011;40936;53.008;6.556;2022-08-01T14:23:42;1334.65;;;618.67;;
55035;SDS011;40936;53.008;6.556;2022-08-01T14:26:09;1999.90;;;999.90;;
55035;SDS011;40936;53.008;6.556;2022-08-01T14:28:38;1999.90;;;999.90;;
55035;SDS011;40936;53.008;6.556;2022-08-01T14:31:04;1999.90;;;999.90;;
55035;SDS011;40936;53.008;6.556;2022-08-01T14:33:33;1999.90;;;999.90;;
55035;SDS011;40936;53.008;6.556;2022-08-01T14:35:59;1999.90;;;999.90;;
55035;SDS011;40936;53.008;6.556;2022-08-01T14:38:26;1999.90;;;999.90;;
55035;SDS011;40936;53.008;6.556;2022-08-01T14:40:52;1999.90;;;999.90;;
55035;SDS011;40936;53.008;6.556;2022-08-01T14:43:18;1999.90;;;999.90;;
55035;SDS011;40936;53.008;6.556;2022-08-01T14:45:44;1590.75;;;793.28;;
55035;SDS011;40936;53.008;6.556;2022-08-01T14:48:10;1999.90;;;999.90;;
55035;SDS011;40936;53.008;6.556;2022-08-01T14:50:36;1999.90;;;999.90;;
55035;SDS011;40936;53.008;6.556;2022-08-01T14:53:02;1222.78;;;538.97;;